createdAt,value
2018-07-19T00:01:36.769Z,13.57
2018-07-19T00:04:06.402Z,9.40
2018-07-19T00:06:36.145Z,10.40
2018-07-19T00:09:08.350Z,10.60
2018-07-19T00:11:38.535Z,10.57
2018-07-19T00:14:07.892Z,8.63
2018-07-19T00:16:37.721Z,13.53
2018-07-19T00:19:07.490Z,8.93
2018-07-19T00:21:36.886Z,10.87
2018-07-19T00:24:06.598Z,8.57
2018-07-19T00:26:36.411Z,10.67
2018-07-19T00:29:05.950Z,14.00
2018-07-19T00:31:36.105Z,11.07
2018-07-19T00:34:05.808Z,7.23
2018-07-19T00:36:35.688Z,16.20
2018-07-19T00:39:06.933Z,12.90
2018-07-19T00:41:36.764Z,11.17
2018-07-19T00:44:06.944Z,12.47
2018-07-19T00:46:36.607Z,9.50
2018-07-19T00:49:10.480Z,12.20
2018-07-19T00:51:40.343Z,8.20
2018-07-19T00:54:09.774Z,11.83
2018-07-19T00:56:39.767Z,15.00
2018-07-19T00:59:09.939Z,13.23
2018-07-19T01:01:39.928Z,11.07
2018-07-19T01:04:09.988Z,8.93
2018-07-19T01:06:39.894Z,12.43
2018-07-19T01:09:11.915Z,12.70
2018-07-19T01:11:42.287Z,11.33
2018-07-19T01:14:11.888Z,12.23
2018-07-19T01:16:41.791Z,12.13
2018-07-19T01:19:11.672Z,9.47
2018-07-19T01:21:41.447Z,11.00
2018-07-19T01:24:11.023Z,14.83
2018-07-19T01:26:41.019Z,8.77
2018-07-19T01:29:10.865Z,12.63
2018-07-19T01:31:40.690Z,8.67
2018-07-19T01:34:10.271Z,10.33
2018-07-19T01:36:40.459Z,13.70
2018-07-19T01:39:11.560Z,10.93
2018-07-19T01:42:22.167Z,13.83
2018-07-19T01:44:51.769Z,11.57
2018-07-19T01:47:21.243Z,16.03
2018-07-19T01:49:50.834Z,14.13
2018-07-19T01:52:20.379Z,12.43
2018-07-19T01:54:49.754Z,13.87
2018-07-19T01:57:19.712Z,13.43
2018-07-19T01:59:49.867Z,12.10
2018-07-19T02:02:20.868Z,11.20
2018-07-19T02:04:50.409Z,12.33
2018-07-19T02:07:20.046Z,12.63
2018-07-19T02:09:49.507Z,16.07
2018-07-19T02:12:19.374Z,9.40
2018-07-19T02:14:48.889Z,10.83
2018-07-19T02:17:18.454Z,10.57
2018-07-19T02:19:48.010Z,11.63
2018-07-19T02:22:17.980Z,13.73
2018-07-19T02:24:47.647Z,11.50
2018-07-19T02:27:17.377Z,13.43
2018-07-19T02:29:47.568Z,12.67
2018-07-19T02:32:17.375Z,12.47
2018-07-19T02:34:47.306Z,8.57
2018-07-19T02:37:17.558Z,8.53
2018-07-19T02:39:47.372Z,10.30
2018-07-19T02:42:18.107Z,9.27
2018-07-19T02:44:48.079Z,11.77
2018-07-19T02:47:18.597Z,12.17
2018-07-19T02:49:49.059Z,14.80
2018-07-19T02:52:19.104Z,11.43
2018-07-19T02:54:48.715Z,16.73
2018-07-19T02:57:18.685Z,10.77
2018-07-19T02:59:48.839Z,8.87
2018-07-19T03:02:18.767Z,14.27
2018-07-19T03:04:48.819Z,11.37
2018-07-19T03:07:19.011Z,11.53
2018-07-19T03:09:48.670Z,11.70
2018-07-19T03:12:18.751Z,14.77
2018-07-19T03:14:48.493Z,14.27
2018-07-19T03:17:18.317Z,16.33
2018-07-19T03:19:48.499Z,14.10
2018-07-19T03:22:18.003Z,10.93
2018-07-19T03:24:48.046Z,15.20
2018-07-19T03:27:18.182Z,12.47
2018-07-19T03:29:47.595Z,12.07
2018-07-19T03:32:19.159Z,13.63
2018-07-19T03:34:48.719Z,9.60
2018-07-19T03:37:18.109Z,11.67
2018-07-19T03:39:48.215Z,15.40
2018-07-19T03:42:17.742Z,14.13
2018-07-19T03:44:47.166Z,18.03
2018-07-19T03:47:16.890Z,15.00
2018-07-19T03:49:46.390Z,13.93
2018-07-19T03:52:15.843Z,9.37
2018-07-19T03:54:45.811Z,11.10
2018-07-19T03:57:15.327Z,16.87
2018-07-19T03:59:44.834Z,14.10
2018-07-19T04:02:14.888Z,14.50
2018-07-19T04:04:44.318Z,15.50
2018-07-19T04:07:14.027Z,10.03
2018-07-19T04:09:43.864Z,15.13
2018-07-19T04:12:13.366Z,10.07
2018-07-19T04:14:42.691Z,14.63
2018-07-19T04:17:12.676Z,14.93
2018-07-19T04:19:41.959Z,11.13
2018-07-19T04:22:11.203Z,12.17
2018-07-19T04:24:41.242Z,16.43
2018-07-19T04:27:10.604Z,11.77
2018-07-19T04:29:40.066Z,14.43
2018-07-19T04:32:10.057Z,13.73
2018-07-19T04:34:39.707Z,16.70
2018-07-19T04:37:09.040Z,15.67
2018-07-19T04:39:38.651Z,11.97
2018-07-19T04:42:08.226Z,11.83
2018-07-19T04:44:37.556Z,13.03
2018-07-19T04:47:07.226Z,13.53
2018-07-19T04:49:37.015Z,15.20
2018-07-19T04:52:06.465Z,13.13
2018-07-19T04:54:36.209Z,9.37
2018-07-19T04:57:05.966Z,13.63
2018-07-19T04:59:35.522Z,12.53
2018-07-19T05:02:05.517Z,12.90
2018-07-19T05:04:35.321Z,15.53
2018-07-19T05:07:04.691Z,14.80
2018-07-19T05:09:34.529Z,18.10
2018-07-19T05:12:04.381Z,12.13
2018-07-19T05:14:33.992Z,12.07
2018-07-19T05:17:04.056Z,16.77
2018-07-19T05:19:33.910Z,14.70
2018-07-19T05:22:03.593Z,10.33
2018-07-19T05:24:33.470Z,12.30
2018-07-19T05:27:02.840Z,14.63
2018-07-19T05:29:32.426Z,11.17
2018-07-19T05:32:02.620Z,10.90
2018-07-19T05:34:32.733Z,12.60
2018-07-19T05:37:02.669Z,12.90
2018-07-19T05:39:32.621Z,16.67
2018-07-19T05:42:03.128Z,14.40
2018-07-19T05:44:32.808Z,16.10
2018-07-19T05:47:02.475Z,11.17
2018-07-19T05:49:32.556Z,14.63
2018-07-19T05:52:02.914Z,13.00
2018-07-19T05:54:32.593Z,10.50
2018-07-19T05:57:02.406Z,13.00
2018-07-19T05:59:32.357Z,9.73
2018-07-19T06:02:02.065Z,11.50
2018-07-19T06:04:32.130Z,16.63
2018-07-19T06:07:02.217Z,10.57
2018-07-19T06:09:32.159Z,12.73
2018-07-19T06:12:02.879Z,14.63
2018-07-19T06:14:32.560Z,10.30
2018-07-19T06:17:02.510Z,17.57
2018-07-19T06:19:32.304Z,12.57
2018-07-19T06:22:02.594Z,14.93
2018-07-19T06:24:32.612Z,15.97
2018-07-19T06:27:02.324Z,14.20
2018-07-19T06:29:32.341Z,11.17
2018-07-19T06:32:01.952Z,15.80
2018-07-19T06:34:31.328Z,9.80
2018-07-19T06:37:00.958Z,14.23
2018-07-19T06:39:30.557Z,11.40
2018-07-19T06:42:00.040Z,13.40
2018-07-19T06:44:29.571Z,10.23
2018-07-19T06:46:59.486Z,24.70
2018-07-19T06:49:29.459Z,21.47
2018-07-19T06:51:59.495Z,11.87
2018-07-19T06:54:29.333Z,9.93
2018-07-19T06:56:58.823Z,10.03
2018-07-19T06:59:28.646Z,10.93
2018-07-19T07:01:58.128Z,13.27
2018-07-19T07:04:27.547Z,9.33
2018-07-19T07:06:57.462Z,11.23
2018-07-19T07:09:27.105Z,10.23
2018-07-19T07:11:56.412Z,11.40
2018-07-19T07:14:25.970Z,11.97
2018-07-19T07:16:55.484Z,14.07
2018-07-19T07:19:24.988Z,11.63
2018-07-19T07:21:54.240Z,16.60
2018-07-19T07:24:23.828Z,12.53
2018-07-19T07:26:53.177Z,10.23
2018-07-19T07:29:22.780Z,13.00
2018-07-19T07:31:52.488Z,9.70
2018-07-19T07:34:22.182Z,9.53
2018-07-19T07:36:51.697Z,11.47
2018-07-19T07:39:21.262Z,13.63
2018-07-19T07:41:50.837Z,8.87
2018-07-19T07:44:20.566Z,10.10
2018-07-19T07:46:50.390Z,9.63
2018-07-19T07:49:35.238Z,10.03
2018-07-19T07:52:05.285Z,9.93
2018-07-19T07:54:34.907Z,11.20
2018-07-19T07:57:04.922Z,12.57
2018-07-19T07:59:34.706Z,10.33
2018-07-19T08:02:04.505Z,10.33
2018-07-19T08:04:34.053Z,8.43
2018-07-19T08:07:03.669Z,11.47
2018-07-19T08:09:33.126Z,11.47
2018-07-19T08:12:02.785Z,10.83
2018-07-19T08:14:32.142Z,10.67
2018-07-19T08:17:01.813Z,11.07
2018-07-19T08:19:31.634Z,8.77
2018-07-19T08:22:00.985Z,12.77
2018-07-19T08:24:30.919Z,9.87
2018-07-19T08:27:00.526Z,12.53
2018-07-19T08:29:30.112Z,10.47
2018-07-19T08:32:00.580Z,12.57
2018-07-19T08:34:30.774Z,8.73
2018-07-19T08:37:00.338Z,11.03
2018-07-19T08:39:30.034Z,11.10
2018-07-19T08:41:59.580Z,9.83
2018-07-19T08:44:28.667Z,8.13
2018-07-19T08:46:58.353Z,7.83
2018-07-19T08:49:28.266Z,8.77
2018-07-19T08:51:57.529Z,8.80
2018-07-19T08:54:26.854Z,8.13
2018-07-19T08:56:56.462Z,10.67
2018-07-19T08:59:25.905Z,8.50
2018-07-19T09:01:55.531Z,9.50
2018-07-19T09:04:25.072Z,10.07
2018-07-19T09:06:54.586Z,14.07
2018-07-19T09:09:24.275Z,9.10
2018-07-19T09:11:53.952Z,9.40
2018-07-19T09:14:23.417Z,7.63
2018-07-19T09:16:53.065Z,8.17
2018-07-19T09:19:22.851Z,8.97
2018-07-19T09:21:52.279Z,8.93
2018-07-19T09:24:21.832Z,9.90
2018-07-19T09:26:51.640Z,11.03
2018-07-19T09:29:21.074Z,10.70
2018-07-19T09:31:50.637Z,8.30
2018-07-19T09:34:20.628Z,9.00
2018-07-19T09:36:50.022Z,10.93
2018-07-19T09:39:19.221Z,12.77
2018-07-19T09:41:48.483Z,8.20
2018-07-19T09:44:17.821Z,9.30
2018-07-19T09:46:47.333Z,10.53
2018-07-19T09:49:17.173Z,5.33
2018-07-19T09:51:46.416Z,7.47
2018-07-19T09:55:23.272Z,4.23
2018-07-19T09:57:52.846Z,7.23
2018-07-19T10:00:27.555Z,6.93
2018-07-19T10:02:57.060Z,6.20
2018-07-19T10:05:26.741Z,6.37
2018-07-19T10:07:56.325Z,8.67
2018-07-19T10:10:26.204Z,11.03
2018-07-19T10:12:57.369Z,6.20
2018-07-19T10:15:26.783Z,8.00
2018-07-19T10:17:56.451Z,10.23
2018-07-19T10:20:25.744Z,7.07
2018-07-19T10:22:55.390Z,9.90
2018-07-19T10:25:25.005Z,13.13
2018-07-19T10:27:54.624Z,10.23
2018-07-19T10:30:24.555Z,11.73
2018-07-19T10:32:54.260Z,10.53
2018-07-19T10:35:23.816Z,7.30
2018-07-19T10:37:53.403Z,9.27
2018-07-19T10:40:22.919Z,10.27
2018-07-19T10:42:52.336Z,9.87
2018-07-19T10:45:22.327Z,8.37
2018-07-19T10:47:52.224Z,8.27
2018-07-19T10:50:22.001Z,7.40
2018-07-19T10:52:51.124Z,8.10
2018-07-19T10:55:20.562Z,5.93
2018-07-19T10:57:50.056Z,7.57
2018-07-19T11:00:19.735Z,7.00
2018-07-19T11:02:49.773Z,8.17
2018-07-19T11:05:19.258Z,5.37
2018-07-19T11:07:48.728Z,9.93
2018-07-19T11:10:18.299Z,8.43
2018-07-19T11:12:47.924Z,8.50
2018-07-19T11:15:17.458Z,12.13
2018-07-19T11:17:46.733Z,8.53
2018-07-19T11:20:16.468Z,8.70
2018-07-19T11:22:46.361Z,6.57
2018-07-19T11:25:15.869Z,11.57
2018-07-19T11:27:45.423Z,8.53
2018-07-19T11:30:14.579Z,6.93
2018-07-19T11:32:44.016Z,6.07
2018-07-19T11:35:13.690Z,8.43
2018-07-19T11:37:43.063Z,5.97
2018-07-19T11:40:12.922Z,6.87
2018-07-19T11:42:42.474Z,5.70
2018-07-19T11:45:12.185Z,6.73
2018-07-19T11:47:42.217Z,8.77
2018-07-19T11:50:11.562Z,6.07
2018-07-19T11:52:40.954Z,5.57
2018-07-19T11:55:10.406Z,7.17
2018-07-19T11:57:40.016Z,7.83
2018-07-19T12:00:09.278Z,7.33
2018-07-19T12:02:38.716Z,10.27
2018-07-19T12:05:08.220Z,11.50
2018-07-19T12:07:37.761Z,7.70
2018-07-19T12:10:07.389Z,7.93
2018-07-19T12:12:36.732Z,7.27
2018-07-19T12:15:06.162Z,7.50
2018-07-19T12:17:35.687Z,7.17
2018-07-19T12:20:05.452Z,6.10
2018-07-19T12:22:34.454Z,7.70
2018-07-19T12:25:04.289Z,6.17
2018-07-19T12:27:33.453Z,6.03
2018-07-19T12:30:02.789Z,6.00
2018-07-19T12:32:32.156Z,4.47
2018-07-19T12:35:01.195Z,4.43
2018-07-19T12:37:30.224Z,4.90
2018-07-19T12:39:59.475Z,6.43
2018-07-19T12:42:28.783Z,9.23
2018-07-19T12:44:58.670Z,9.33
2018-07-19T12:47:28.474Z,9.73
2018-07-19T12:49:58.010Z,5.57
2018-07-19T12:52:27.007Z,6.93
2018-07-19T12:54:56.386Z,5.27
2018-07-19T12:57:25.662Z,7.20
2018-07-19T12:59:54.725Z,4.10
2018-07-19T13:02:24.276Z,5.13
2018-07-19T13:04:53.796Z,6.90
2018-07-19T13:07:22.988Z,5.43
2018-07-19T13:09:52.318Z,6.40
2018-07-19T13:12:21.888Z,5.17
2018-07-19T13:14:50.932Z,8.73
2018-07-19T13:17:20.156Z,9.03
2018-07-19T13:19:49.810Z,4.10
2018-07-19T13:22:19.526Z,4.47
2018-07-19T13:24:49.028Z,6.43
2018-07-19T13:27:18.518Z,5.43
2018-07-19T13:29:48.409Z,5.37
2018-07-19T13:32:17.826Z,5.17
2018-07-19T13:34:47.119Z,6.07
2018-07-19T13:37:16.647Z,3.73
2018-07-19T13:39:46.366Z,4.47
2018-07-19T13:42:15.554Z,4.77
2018-07-19T13:44:44.997Z,4.03
2018-07-19T13:47:14.861Z,3.90
2018-07-19T13:49:44.375Z,4.37
2018-07-19T13:52:14.396Z,5.23
2018-07-19T13:54:47.390Z,4.67
2018-07-19T13:57:17.171Z,6.17
2018-07-19T13:59:46.608Z,5.17
2018-07-19T14:02:16.175Z,6.90
2018-07-19T14:04:45.855Z,5.40
2018-07-19T14:07:15.219Z,6.73
2018-07-19T14:09:44.954Z,6.63
2018-07-19T14:12:14.432Z,4.70
2018-07-19T14:14:43.893Z,4.03
2018-07-19T14:17:13.593Z,5.27
2018-07-19T14:19:43.386Z,6.70
2018-07-19T14:22:12.960Z,5.73
2018-07-19T14:24:42.466Z,4.87
2018-07-19T14:27:12.130Z,4.10
2018-07-19T14:29:41.653Z,5.77
2018-07-19T14:32:11.500Z,5.77
2018-07-19T14:34:40.925Z,4.80
2018-07-19T14:37:10.297Z,4.87
2018-07-19T14:39:39.797Z,6.07
2018-07-19T14:42:09.535Z,9.20
2018-07-19T14:44:38.749Z,5.80
2018-07-19T14:47:08.282Z,7.87
2018-07-19T14:49:37.948Z,5.93
2018-07-19T14:52:07.426Z,8.70
2018-07-19T14:54:37.932Z,6.13
2018-07-19T14:57:07.279Z,5.13
2018-07-19T14:59:36.797Z,9.77
2018-07-19T15:02:06.450Z,6.10
2018-07-19T15:04:35.758Z,8.33
2018-07-19T15:07:05.069Z,8.27
2018-07-19T15:09:35.022Z,6.10
2018-07-19T15:12:04.309Z,7.07
2018-07-19T15:14:33.674Z,5.63
2018-07-19T15:17:03.588Z,7.63
2018-07-19T15:19:32.866Z,6.87
2018-07-19T15:22:02.273Z,5.13
2018-07-19T15:24:32.102Z,5.63
2018-07-19T15:27:01.503Z,7.97
2018-07-19T15:29:30.884Z,9.03
2018-07-19T15:32:00.664Z,6.97
2018-07-19T15:34:30.012Z,6.57
2018-07-19T15:36:59.345Z,8.20
2018-07-19T15:39:28.896Z,6.30
2018-07-19T15:41:58.389Z,5.47
2018-07-19T15:44:27.763Z,6.67
2018-07-19T15:46:57.685Z,7.43
2018-07-19T15:49:27.128Z,5.00
2018-07-19T15:51:56.666Z,6.23
2018-07-19T15:54:26.483Z,4.87
2018-07-19T15:56:55.866Z,6.73
2018-07-19T15:59:25.385Z,7.20
2018-07-19T16:01:55.289Z,5.37
2018-07-19T16:04:24.656Z,5.57
2018-07-19T16:06:54.037Z,6.93
2018-07-19T16:09:24.194Z,8.13
2018-07-19T16:11:54.090Z,4.83
2018-07-19T16:14:23.652Z,6.10
2018-07-19T16:16:53.005Z,9.33
2018-07-19T16:19:22.335Z,8.90
2018-07-19T16:21:51.808Z,7.23
2018-07-19T16:24:21.529Z,4.37
2018-07-19T16:26:50.985Z,5.80
2018-07-19T16:29:20.684Z,5.70
2018-07-19T16:31:50.357Z,7.37
2018-07-19T16:34:19.884Z,6.87
2018-07-19T16:36:49.385Z,6.50
2018-07-19T16:39:19.101Z,6.13
2018-07-19T16:41:48.372Z,7.33
2018-07-19T16:44:18.155Z,10.10
2018-07-19T16:46:47.861Z,8.43
2018-07-19T16:49:17.131Z,5.20
2018-07-19T16:51:46.656Z,7.13
2018-07-19T16:54:16.135Z,5.20
2018-07-19T16:56:45.638Z,6.20
2018-07-19T16:59:15.282Z,7.33
2018-07-19T17:01:44.636Z,7.20
2018-07-19T17:04:14.144Z,10.17
2018-07-19T17:06:43.692Z,6.87
2018-07-19T17:09:13.258Z,6.23
2018-07-19T17:11:42.684Z,6.67
2018-07-19T17:14:12.608Z,9.13
2018-07-19T17:16:42.001Z,8.70
2018-07-19T17:19:12.388Z,7.73
2018-07-19T17:21:41.816Z,9.13
2018-07-19T17:24:11.643Z,7.37
2018-07-19T17:26:40.922Z,5.37
2018-07-19T17:29:10.220Z,7.60
2018-07-19T17:31:39.682Z,8.57
2018-07-19T17:34:09.087Z,5.63
2018-07-19T17:36:38.419Z,7.37
2018-07-19T17:39:10.928Z,8.17
2018-07-19T17:41:40.171Z,9.27
2018-07-19T17:44:09.692Z,5.90
2018-07-19T17:46:39.240Z,8.13
2018-07-19T17:49:08.913Z,6.80
2018-07-19T17:51:38.220Z,7.67
2018-07-19T17:54:07.816Z,8.47
2018-07-19T17:56:37.340Z,6.73
2018-07-19T17:59:06.829Z,6.07
2018-07-19T18:01:36.593Z,6.17
2018-07-19T18:04:06.165Z,5.87
2018-07-19T18:06:35.369Z,7.57
2018-07-19T18:09:06.692Z,10.63
2018-07-19T18:11:36.187Z,5.83
2018-07-19T18:14:06.774Z,7.53
2018-07-19T18:16:36.660Z,11.47
2018-07-19T18:19:06.392Z,9.23
2018-07-19T18:21:36.000Z,10.27
2018-07-19T18:24:05.636Z,13.73
2018-07-19T18:26:35.218Z,11.53
2018-07-19T18:29:04.827Z,10.87
2018-07-19T18:31:34.406Z,11.50
2018-07-19T18:34:03.975Z,6.20
2018-07-19T18:36:33.426Z,12.13
2018-07-19T18:39:03.137Z,9.87
2018-07-19T18:41:32.853Z,9.20
2018-07-19T18:44:02.166Z,9.80
2018-07-19T18:46:31.810Z,10.67
2018-07-19T18:49:01.543Z,9.30
2018-07-19T18:51:30.898Z,8.87
2018-07-19T18:54:00.420Z,12.10
2018-07-19T18:56:30.061Z,12.27
2018-07-19T18:58:59.551Z,9.90
2018-07-19T19:01:29.249Z,12.27
2018-07-19T19:03:58.805Z,13.87
2018-07-19T19:06:28.470Z,14.80
2018-07-19T19:08:57.827Z,8.80
2018-07-19T19:11:27.045Z,8.73
2018-07-19T19:13:56.369Z,10.93
2018-07-19T19:16:26.182Z,10.87
2018-07-19T19:18:55.845Z,10.80
2018-07-19T19:21:25.499Z,10.27
2018-07-19T19:23:55.196Z,14.30
2018-07-19T19:26:24.923Z,14.63
2018-07-19T19:28:54.121Z,12.37
2018-07-19T19:31:23.636Z,16.03
2018-07-19T19:33:52.972Z,13.37
2018-07-19T19:36:22.517Z,12.33
2018-07-19T19:38:52.051Z,13.10
2018-07-19T19:41:21.708Z,14.07
2018-07-19T19:43:50.994Z,16.23
2018-07-19T19:46:20.349Z,11.30
2018-07-19T19:48:49.704Z,15.70
2018-07-19T19:51:19.076Z,14.77
2018-07-19T19:53:48.664Z,12.03
2018-07-19T19:56:18.269Z,18.33
2018-07-19T19:58:47.584Z,12.60
2018-07-19T20:01:17.316Z,15.23
2018-07-19T20:03:46.916Z,19.30
2018-07-19T20:06:15.926Z,15.43
2018-07-19T20:08:45.590Z,16.40
2018-07-19T20:11:15.216Z,20.57
2018-07-19T20:13:44.804Z,12.93
2018-07-19T20:16:14.466Z,14.40
2018-07-19T20:18:43.816Z,14.87
2018-07-19T20:21:13.623Z,20.07
2018-07-19T20:23:43.243Z,20.60
2018-07-19T20:26:12.602Z,13.57
2018-07-19T20:28:42.473Z,14.67
2018-07-19T20:31:11.818Z,17.37
2018-07-19T20:33:41.024Z,13.77
2018-07-19T20:36:10.816Z,16.67
2018-07-19T20:38:40.458Z,16.47
2018-07-19T20:41:09.765Z,16.10
2018-07-19T20:43:39.450Z,16.50
2018-07-19T20:46:09.151Z,20.30
2018-07-19T20:48:38.462Z,15.77
2018-07-19T20:51:08.015Z,13.33
2018-07-19T20:53:37.452Z,16.30
2018-07-19T20:56:06.797Z,13.97
2018-07-19T20:58:36.398Z,14.03
2018-07-19T21:01:05.719Z,16.00
2018-07-19T21:03:35.149Z,13.63
2018-07-19T21:06:04.827Z,17.30
2018-07-19T21:08:34.678Z,12.13
2018-07-19T21:11:04.237Z,15.00
2018-07-19T21:13:33.651Z,10.50
2018-07-19T21:16:03.526Z,12.40
2018-07-19T21:18:33.190Z,11.90
2018-07-19T21:21:02.481Z,11.70
2018-07-19T21:23:32.300Z,10.40
2018-07-19T21:26:01.736Z,10.07
2018-07-19T21:28:31.333Z,8.07
2018-07-19T21:31:01.095Z,8.70
2018-07-19T21:33:30.250Z,11.73
2018-07-19T21:35:59.467Z,12.67
2018-07-19T21:38:29.257Z,8.10
2018-07-19T21:40:58.686Z,9.20
2018-07-19T21:43:28.123Z,10.90
2018-07-19T21:45:58.019Z,7.73
2018-07-19T21:48:27.526Z,8.97
2018-07-19T21:50:56.845Z,5.90
2018-07-19T21:53:26.551Z,9.47
2018-07-19T21:55:55.987Z,7.20
2018-07-19T21:58:25.333Z,7.67
2018-07-19T22:00:59.792Z,9.90
2018-07-19T22:03:29.858Z,10.20
2018-07-19T22:05:59.516Z,7.23
2018-07-19T22:08:28.866Z,6.20
2018-07-19T22:10:58.367Z,13.20
2018-07-19T22:13:28.281Z,10.17
2018-07-19T22:15:58.132Z,7.13
2018-07-19T22:18:27.860Z,8.67
2018-07-19T22:20:57.346Z,10.77
2018-07-19T22:23:26.802Z,8.53
2018-07-19T22:25:56.657Z,9.77
2018-07-19T22:28:26.176Z,10.80
2018-07-19T22:30:55.660Z,9.27
2018-07-19T22:33:25.960Z,8.57
2018-07-19T22:35:55.541Z,8.27
2018-07-19T22:38:25.153Z,7.17
2018-07-19T22:40:55.055Z,9.27
2018-07-19T22:43:24.484Z,8.80
2018-07-19T22:45:53.937Z,12.20
2018-07-19T22:48:23.638Z,9.97
2018-07-19T22:50:53.010Z,4.30
2018-07-19T22:53:22.435Z,10.47
2018-07-19T22:55:52.306Z,9.40
2018-07-19T22:58:21.826Z,10.27
2018-07-19T23:00:51.156Z,9.60
2018-07-19T23:03:20.990Z,15.97
2018-07-19T23:05:50.598Z,9.37
2018-07-19T23:08:20.013Z,11.13
2018-07-19T23:10:49.683Z,9.40
2018-07-19T23:13:19.398Z,9.63
2018-07-19T23:15:48.802Z,14.57
2018-07-19T23:18:18.358Z,12.03
2018-07-19T23:20:47.910Z,8.23
2018-07-19T23:23:17.231Z,9.23
2018-07-19T23:25:46.721Z,8.97
2018-07-19T23:28:16.412Z,9.30
2018-07-19T23:30:45.712Z,11.80
2018-07-19T23:33:15.397Z,16.23
2018-07-19T23:35:50.466Z,9.13
2018-07-19T23:38:23.938Z,10.20
2018-07-19T23:40:54.685Z,10.23
2018-07-19T23:43:27.169Z,9.57
2018-07-19T23:46:02.341Z,9.70
2018-07-19T23:48:31.975Z,11.80
2018-07-19T23:51:01.530Z,8.27
2018-07-19T23:53:31.048Z,12.70
2018-07-19T23:56:00.643Z,8.83
2018-07-19T23:58:30.017Z,10.67
